Last 30 Days

OV-Siberia 8700'

Daily Data | America/Los_Angeles
as of 6/24/24 7:29 PM PDT
Date Daily Max Temp (°F) Time of Max Temp Daily Min Temp (°F) Time of Min Temp Wind Spd (mph) Daily Max Wind (mph) Time of Max Wind Max Wind Dir (°) Wet Bulb (°F) WetB Hrs <28F (hrs)
6/23/24 66.2 1616 53.8 2301 34.7 58.9 1241 SSW | 200 47.6 0.0
6/22/24 70.1 1621 56.2 0236 21.8 50.0 1637 S | 186 48.0 0.0
6/21/24 70.4 1611 50.8 0443 14.8 30.7 0324 NE | 37 45.2 0.0
6/20/24 65.1 1438 45.0 0400 15.0 31.7 0812 N | 356 42.4 0.0
6/19/24 58.9 1612 42.0 0412 6.6 33.6 1340 S | 171 38.9 0.0
6/18/24 52.4 1330 34.8 0312 13.4 35.3 0105 NE | 48 32.5 3.8
6/17/24 46.8 1526 36.1 2359 9.5 36.0 1345 N | 9 30.7 0.8
6/16/24 55.2 1336 38.5 2357 27.9 57.1 2310 SSW | 197 37.9 0.0
6/15/24 57.1 1640 42.9 0501 28.0 54.1 0017 SSW | 197 36.1 0.0
6/14/24 58.3 1336 45.5 2050 35.0 78.4 1806 SSW | 200 39.9 0.0
6/13/24 66.6 1424 51.6 2318 21.8 40.3 1547 SW | 236 47.8 0.0
6/12/24 69.7 1450 58.0 2050 16.2 39.6 1512 S | 182 48.5 0.0
6/11/24 69.6 1556 55.8 0105 11.6 40.7 1558 S | 190 49.1 0.0
6/10/24 67.6 1454 47.1 0517 16.5 41.0 0736 NNE | 15 48.0 0.0
6/9/24 61.3 1346 48.4 0741 17.5 40.4 1709 SE | 130 41.8 0.0
6/8/24 63.0 1605 50.5 2205 19.9 39.8 1604 SSW | 206 41.9 0.0
6/7/24 67.1 1454 54.8 2139 18.9 47.6 1541 SSW | 212 46.3 0.0
6/6/24 69.2 1512 57.7 0452 20.5 43.5 1629 S | 171 49.8 0.0
6/5/24 71.6 1403 57.8 0152 9.5 31.9 1831 S | 172 50.9 0.0
6/4/24 65.7 1852 40.4 0220 14.8 39.5 0840 NE | 38 46.3 0.0
6/3/24 48.5 0004 40.9 0750 32.7 67.8 0826 S | 183 42.3 0.0
6/2/24 56.7 1410 42.4 0508 21.9 42.5 2349 SSW | 200 41.7 0.0
6/1/24 56.5 1534 44.8 2102 22.2 44.9 1913 SSW | 211 41.2 0.0
5/31/24 61.3 1357 43.7 0538 14.5 30.2 1752 S | 185 40.5 0.0
5/30/24 58.3 1507 41.8 0254 13.1 28.1 0732 NE | 36 39.5 0.0
5/29/24 55.4 1651 43.3 2314 15.8 30.9 2245 NNE | 33 43.6 0.0
5/28/24 54.8 1503 40.6 2354 23.6 48.5 1711 SSW | 193 40.8 0.0
5/27/24 57.3 1606 44.0 0102 13.6 37.2 1746 S | 179 42.3 0.0
5/26/24 54.7 1537 37.2 0234 10.5 26.4 1813 WSW | 246 36.0 2.1
5/25/24 42.5 1602 30.8 0517 28.6 54.1 1426 S | 178 32.4 1.2
Max 71.6 - 58.0 - 35.0 78.4 - - 50.9 3.8
Avg - - - - 19.0 - - - 42.3 -
Min 42.5 - 30.8 - 6.6 26.4 - - 30.7 0.0